sensor_id;sensor_type;location;lat;lon;timestamp;P1;durP1;ratioP1;P2;durP2;ratioP2
68319;SDS011;55168;51.120;17.024;2023-01-09T00:00:00;38.1;;;24.7;;
68319;SDS011;55168;51.120;17.024;2023-01-09T00:01:00;38.1;;;24.7;;
68319;SDS011;55168;51.120;17.024;2023-01-09T00:02:00;38.1;;;24.7;;
68319;SDS011;55168;51.120;17.024;2023-01-09T00:03:00;38.1;;;24.7;;
68319;SDS011;55168;51.120;17.024;2023-01-09T00:04:00;39.6;;;26.3;;
68319;SDS011;55168;51.120;17.024;2023-01-09T00:05:00;39.6;;;26.3;;
68319;SDS011;55168;51.120;17.024;2023-01-09T00:06:00;39.6;;;26.3;;
68319;SDS011;55168;51.120;17.024;2023-01-09T00:07:00;39.6;;;26.3;;
68319;SDS011;55168;51.120;17.024;2023-01-09T00:08:00;39.6;;;26.3;;
68319;SDS011;55168;51.120;17.024;2023-01-09T00:09:00;39.3;;;25.1;;
68319;SDS011;55168;51.120;17.024;2023-01-09T00:10:00;39.3;;;25.1;;
68319;SDS011;55168;51.120;17.024;2023-01-09T00:11:00;39.3;;;25.1;;
68319;SDS011;55168;51.120;17.024;2023-01-09T00:13:00;39.3;;;25.1;;
68319;SDS011;55168;51.120;17.024;2023-01-09T00:14:00;41.9;;;25.4;;
68319;SDS011;55168;51.120;17.024;2023-01-09T00:15:00;41.9;;;25.4;;
68319;SDS011;55168;51.120;17.024;2023-01-09T00:16:00;41.9;;;25.4;;
68319;SDS011;55168;51.120;17.024;2023-01-09T00:17:00;41.9;;;25.4;;
68319;SDS011;55168;51.120;17.024;2023-01-09T00:18:00;41.9;;;25.4;;
68319;SDS011;55168;51.120;17.024;2023-01-09T00:19:00;39.5;;;26.0;;
68319;SDS011;55168;51.120;17.024;2023-01-09T00:20:00;39.5;;;26.0;;
68319;SDS011;55168;51.120;17.024;2023-01-09T00:21:01;39.5;;;26.0;;
68319;SDS011;55168;51.120;17.024;2023-01-09T00:22:00;39.5;;;26.0;;
68319;SDS011;55168;51.120;17.024;2023-01-09T00:23:00;39.5;;;26.0;;
68319;SDS011;55168;51.120;17.024;2023-01-09T00:24:00;39.4;;;25.3;;
68319;SDS011;55168;51.120;17.024;2023-01-09T00:25:00;39.4;;;25.3;;
68319;SDS011;55168;51.120;17.024;2023-01-09T00:26:18;39.4;;;25.3;;
68319;SDS011;55168;51.120;17.024;2023-01-09T00:27:00;39.4;;;25.3;;
68319;SDS011;55168;51.120;17.024;2023-01-09T00:28:00;39.4;;;25.3;;
68319;SDS011;55168;51.120;17.024;2023-01-09T00:29:00;38.5;;;24.6;;
68319;SDS011;55168;51.120;17.024;2023-01-09T00:30:00;38.5;;;24.6;;
68319;SDS011;55168;51.120;17.024;2023-01-09T00:31:01;38.5;;;24.6;;
68319;SDS011;55168;51.120;17.024;2023-01-09T00:32:00;38.5;;;24.6;;
68319;SDS011;55168;51.120;17.024;2023-01-09T00:33:00;38.5;;;24.6;;
68319;SDS011;55168;51.120;17.024;2023-01-09T00:34:04;40.0;;;25.5;;
68319;SDS011;55168;51.120;17.024;2023-01-09T00:35:00;40.0;;;25.5;;
68319;SDS011;55168;51.120;17.024;2023-01-09T00:36:00;40.0;;;25.5;;
68319;SDS011;55168;51.120;17.024;2023-01-09T00:37:00;40.0;;;25.5;;
68319;SDS011;55168;51.120;17.024;2023-01-09T00:38:00;40.0;;;25.5;;
68319;SDS011;55168;51.120;17.024;2023-01-09T00:39:01;39.5;;;25.6;;
68319;SDS011;55168;51.120;17.024;2023-01-09T00:40:00;39.5;;;25.6;;
68319;SDS011;55168;51.120;17.024;2023-01-09T00:41:00;39.5;;;25.6;;
68319;SDS011;55168;51.120;17.024;2023-01-09T00:42:00;39.5;;;25.6;;
68319;SDS011;55168;51.120;17.024;2023-01-09T00:43:00;39.5;;;25.6;;
68319;SDS011;55168;51.120;17.024;2023-01-09T00:44:04;39.9;;;25.8;;
68319;SDS011;55168;51.120;17.024;2023-01-09T00:45:03;39.9;;;25.8;;
68319;SDS011;55168;51.120;17.024;2023-01-09T00:46:02;39.9;;;25.8;;
68319;SDS011;55168;51.120;17.024;2023-01-09T00:47:04;39.9;;;25.8;;
68319;SDS011;55168;51.120;17.024;2023-01-09T00:48:05;39.9;;;25.8;;
68319;SDS011;55168;51.120;17.024;2023-01-09T00:49:01;44.1;;;27.4;;
68319;SDS011;55168;51.120;17.024;2023-01-09T00:50:05;44.1;;;27.4;;
68319;SDS011;55168;51.120;17.024;2023-01-09T00:51:00;44.1;;;27.4;;
68319;SDS011;55168;51.120;17.024;2023-01-09T00:52:00;44.1;;;27.4;;
68319;SDS011;55168;51.120;17.024;2023-01-09T00:53:04;44.1;;;27.4;;
68319;SDS011;55168;51.120;17.024;2023-01-09T00:54:01;44.0;;;27.6;;
68319;SDS011;55168;51.120;17.024;2023-01-09T00:55:01;44.0;;;27.6;;
68319;SDS011;55168;51.120;17.024;2023-01-09T00:56:03;44.0;;;27.6;;
68319;SDS011;55168;51.120;17.024;2023-01-09T00:57:00;44.0;;;27.6;;
68319;SDS011;55168;51.120;17.024;2023-01-09T00:58:00;44.0;;;27.6;;
68319;SDS011;55168;51.120;17.024;2023-01-09T00:59:00;42.1;;;27.7;;
68319;SDS011;55168;51.120;17.024;2023-01-09T01:00:00;42.1;;;27.7;;
68319;SDS011;55168;51.120;17.024;2023-01-09T01:01:00;42.1;;;27.7;;
68319;SDS011;55168;51.120;17.024;2023-01-09T01:02:00;42.1;;;27.7;;
68319;SDS011;55168;51.120;17.024;2023-01-09T01:03:00;42.1;;;27.7;;
68319;SDS011;55168;51.120;17.024;2023-01-09T01:04:00;43.7;;;28.4;;
68319;SDS011;55168;51.120;17.024;2023-01-09T01:05:00;43.7;;;28.4;;
68319;SDS011;55168;51.120;17.024;2023-01-09T01:06:00;43.7;;;28.4;;
68319;SDS011;55168;51.120;17.024;2023-01-09T01:07:00;43.7;;;28.4;;
68319;SDS011;55168;51.120;17.024;2023-01-09T01:08:00;43.7;;;28.4;;
68319;SDS011;55168;51.120;17.024;2023-01-09T01:09:00;40.8;;;26.6;;
68319;SDS011;55168;51.120;17.024;2023-01-09T01:10:00;40.8;;;26.6;;
68319;SDS011;55168;51.120;17.024;2023-01-09T01:11:04;40.8;;;26.6;;
68319;SDS011;55168;51.120;17.024;2023-01-09T01:12:00;40.8;;;26.6;;
68319;SDS011;55168;51.120;17.024;2023-01-09T01:13:00;40.8;;;26.6;;
68319;SDS011;55168;51.120;17.024;2023-01-09T01:14:00;42.4;;;26.8;;
68319;SDS011;55168;51.120;17.024;2023-01-09T01:15:00;42.4;;;26.8;;
68319;SDS011;55168;51.120;17.024;2023-01-09T01:16:03;42.4;;;26.8;;
68319;SDS011;55168;51.120;17.024;2023-01-09T01:17:00;42.4;;;26.8;;
68319;SDS011;55168;51.120;17.024;2023-01-09T01:18:00;42.4;;;26.8;;
68319;SDS011;55168;51.120;17.024;2023-01-09T01:19:00;42.7;;;26.6;;
68319;SDS011;55168;51.120;17.024;2023-01-09T01:20:00;42.7;;;26.6;;
68319;SDS011;55168;51.120;17.024;2023-01-09T01:21:00;42.7;;;26.6;;
68319;SDS011;55168;51.120;17.024;2023-01-09T01:22:00;42.7;;;26.6;;
68319;SDS011;55168;51.120;17.024;2023-01-09T01:23:00;42.7;;;26.6;;
68319;SDS011;55168;51.120;17.024;2023-01-09T01:24:00;40.6;;;26.9;;
68319;SDS011;55168;51.120;17.024;2023-01-09T01:25:00;40.6;;;26.9;;
68319;SDS011;55168;51.120;17.024;2023-01-09T01:26:06;40.6;;;26.9;;
68319;SDS011;55168;51.120;17.024;2023-01-09T01:27:00;40.6;;;26.9;;
68319;SDS011;55168;51.120;17.024;2023-01-09T01:28:00;40.6;;;26.9;;
68319;SDS011;55168;51.120;17.024;2023-01-09T01:29:00;42.5;;;27.1;;
68319;SDS011;55168;51.120;17.024;2023-01-09T01:30:00;42.5;;;27.1;;
68319;SDS011;55168;51.120;17.024;2023-01-09T01:31:01;42.5;;;27.1;;
68319;SDS011;55168;51.120;17.024;2023-01-09T01:32:00;42.5;;;27.1;;
68319;SDS011;55168;51.120;17.024;2023-01-09T01:33:00;42.5;;;27.1;;
68319;SDS011;55168;51.120;17.024;2023-01-09T01:34:00;44.0;;;28.4;;
68319;SDS011;55168;51.120;17.024;2023-01-09T01:35:00;44.0;;;28.4;;
68319;SDS011;55168;51.120;17.024;2023-01-09T01:36:06;44.0;;;28.4;;
68319;SDS011;55168;51.120;17.024;2023-01-09T01:37:00;44.0;;;28.4;;
68319;SDS011;55168;51.120;17.024;2023-01-09T01:38:00;44.0;;;28.4;;
68319;SDS011;55168;51.120;17.024;2023-01-09T01:39:00;43.0;;;27.6;;
68319;SDS011;55168;51.120;17.024;2023-01-09T01:40:00;43.0;;;27.6;;
68319;SDS011;55168;51.120;17.024;2023-01-09T01:41:00;43.0;;;27.6;;
68319;SDS011;55168;51.120;17.024;2023-01-09T01:42:02;43.0;;;27.6;;
68319;SDS011;55168;51.120;17.024;2023-01-09T01:43:00;43.0;;;27.6;;
68319;SDS011;55168;51.120;17.024;2023-01-09T01:44:02;42.6;;;27.8;;
68319;SDS011;55168;51.120;17.024;2023-01-09T01:45:03;42.6;;;27.8;;
68319;SDS011;55168;51.120;17.024;2023-01-09T01:46:00;42.6;;;27.8;;
68319;SDS011;55168;51.120;17.024;2023-01-09T01:47:00;42.6;;;27.8;;
68319;SDS011;55168;51.120;17.024;2023-01-09T01:48:10;42.6;;;27.8;;
68319;SDS011;55168;51.120;17.024;2023-01-09T01:49:04;43.1;;;27.7;;
68319;SDS011;55168;51.120;17.024;2023-01-09T01:50:04;43.1;;;27.7;;
68319;SDS011;55168;51.120;17.024;2023-01-09T01:51:03;43.1;;;27.7;;
68319;SDS011;55168;51.120;17.024;2023-01-09T01:52:00;43.1;;;27.7;;
68319;SDS011;55168;51.120;17.024;2023-01-09T01:53:03;43.1;;;27.7;;
68319;SDS011;55168;51.120;17.024;2023-01-09T01:54:03;42.1;;;27.0;;
68319;SDS011;55168;51.120;17.024;2023-01-09T01:55:00;42.1;;;27.0;;
68319;SDS011;55168;51.120;17.024;2023-01-09T01:57:02;42.1;;;27.0;;
68319;SDS011;55168;51.120;17.024;2023-01-09T01:58:01;42.1;;;27.0;;
68319;SDS011;55168;51.120;17.024;2023-01-09T01:59:06;40.7;;;27.5;;
68319;SDS011;55168;51.120;17.024;2023-01-09T02:00:00;40.7;;;27.5;;
68319;SDS011;55168;51.120;17.024;2023-01-09T02:01:01;40.7;;;27.5;;
68319;SDS011;55168;51.120;17.024;2023-01-09T02:02:01;40.7;;;27.5;;
68319;SDS011;55168;51.120;17.024;2023-01-09T02:03:00;40.7;;;27.5;;
68319;SDS011;55168;51.120;17.024;2023-01-09T02:04:00;45.1;;;29.2;;
68319;SDS011;55168;51.120;17.024;2023-01-09T02:05:00;45.1;;;29.2;;
68319;SDS011;55168;51.120;17.024;2023-01-09T02:06:00;45.1;;;29.2;;
68319;SDS011;55168;51.120;17.024;2023-01-09T02:07:02;45.1;;;29.2;;
68319;SDS011;55168;51.120;17.024;2023-01-09T02:08:00;45.1;;;29.2;;
68319;SDS011;55168;51.120;17.024;2023-01-09T02:09:02;46.5;;;29.7;;
68319;SDS011;55168;51.120;17.024;2023-01-09T02:10:00;46.5;;;29.7;;
68319;SDS011;55168;51.120;17.024;2023-01-09T02:11:01;46.5;;;29.7;;
68319;SDS011;55168;51.120;17.024;2023-01-09T02:12:00;46.5;;;29.7;;
68319;SDS011;55168;51.120;17.024;2023-01-09T02:13:01;46.5;;;29.7;;
68319;SDS011;55168;51.120;17.024;2023-01-09T02:14:00;47.5;;;29.0;;
68319;SDS011;55168;51.120;17.024;2023-01-09T02:15:05;47.5;;;29.0;;
68319;SDS011;55168;51.120;17.024;2023-01-09T02:16:09;47.5;;;29.0;;
68319;SDS011;55168;51.120;17.024;2023-01-09T02:17:11;47.5;;;29.0;;
68319;SDS011;55168;51.120;17.024;2023-01-09T02:21:11;45.3;;;30.0;;
68319;SDS011;55168;51.120;17.024;2023-01-09T02:23:17;45.3;;;30.0;;
68319;SDS011;55168;51.120;17.024;2023-01-09T02:24:15;45.3;;;29.5;;
68319;SDS011;55168;51.120;17.024;2023-01-09T02:26:11;45.3;;;29.5;;
68319;SDS011;55168;51.120;17.024;2023-01-09T02:31:09;44.6;;;28.5;;
68319;SDS011;55168;51.120;17.024;2023-01-09T02:32:06;44.6;;;28.5;;
68319;SDS011;55168;51.120;17.024;2023-01-09T02:34:08;45.1;;;29.4;;
68319;SDS011;55168;51.120;17.024;2023-01-09T02:35:06;45.1;;;29.4;;
68319;SDS011;55168;51.120;17.024;2023-01-09T02:36:09;45.1;;;29.4;;
68319;SDS011;55168;51.120;17.024;2023-01-09T02:37:08;45.1;;;29.4;;
68319;SDS011;55168;51.120;17.024;2023-01-09T02:38:05;45.1;;;29.4;;
68319;SDS011;55168;51.120;17.024;2023-01-09T02:40:03;46.2;;;28.4;;
68319;SDS011;55168;51.120;17.024;2023-01-09T02:41:06;46.2;;;28.4;;
68319;SDS011;55168;51.120;17.024;2023-01-09T02:42:07;46.2;;;28.4;;
68319;SDS011;55168;51.120;17.024;2023-01-09T02:43:01;46.2;;;28.4;;
68319;SDS011;55168;51.120;17.024;2023-01-09T02:44:13;47.2;;;28.5;;
68319;SDS011;55168;51.120;17.024;2023-01-09T02:45:00;47.2;;;28.5;;
68319;SDS011;55168;51.120;17.024;2023-01-09T02:46:00;47.2;;;28.5;;
68319;SDS011;55168;51.120;17.024;2023-01-09T02:47:05;47.2;;;28.5;;
68319;SDS011;55168;51.120;17.024;2023-01-09T02:48:00;47.2;;;28.5;;
68319;SDS011;55168;51.120;17.024;2023-01-09T02:49:00;43.0;;;27.4;;
68319;SDS011;55168;51.120;17.024;2023-01-09T02:50:02;43.0;;;27.4;;
68319;SDS011;55168;51.120;17.024;2023-01-09T02:51:08;43.0;;;27.4;;
68319;SDS011;55168;51.120;17.024;2023-01-09T02:53:18;43.0;;;27.4;;
68319;SDS011;55168;51.120;17.024;2023-01-09T02:55:10;43.7;;;27.4;;
68319;SDS011;55168;51.120;17.024;2023-01-09T02:57:13;43.7;;;27.4;;
68319;SDS011;55168;51.120;17.024;2023-01-09T02:58:10;43.7;;;27.4;;
68319;SDS011;55168;51.120;17.024;2023-01-09T02:59:19;39.5;;;25.9;;
68319;SDS011;55168;51.120;17.024;2023-01-09T03:03:09;39.5;;;25.9;;
68319;SDS011;55168;51.120;17.024;2023-01-09T03:04:14;42.2;;;26.2;;
68319;SDS011;55168;51.120;17.024;2023-01-09T03:05:12;42.2;;;26.2;;
68319;SDS011;55168;51.120;17.024;2023-01-09T03:07:06;42.2;;;26.2;;
68319;SDS011;55168;51.120;17.024;2023-01-09T03:08:05;42.2;;;26.2;;
68319;SDS011;55168;51.120;17.024;2023-01-09T03:09:05;38.5;;;25.7;;
68319;SDS011;55168;51.120;17.024;2023-01-09T03:10:13;38.5;;;25.7;;
68319;SDS011;55168;51.120;17.024;2023-01-09T03:11:02;38.5;;;25.7;;
68319;SDS011;55168;51.120;17.024;2023-01-09T03:12:12;38.5;;;25.7;;
68319;SDS011;55168;51.120;17.024;2023-01-09T03:13:01;38.5;;;25.7;;
68319;SDS011;55168;51.120;17.024;2023-01-09T03:14:04;38.6;;;25.3;;
68319;SDS011;55168;51.120;17.024;2023-01-09T03:15:00;38.6;;;25.3;;
68319;SDS011;55168;51.120;17.024;2023-01-09T03:16:05;38.6;;;25.3;;
68319;SDS011;55168;51.120;17.024;2023-01-09T03:17:03;38.6;;;25.3;;
68319;SDS011;55168;51.120;17.024;2023-01-09T03:18:00;38.6;;;25.3;;
68319;SDS011;55168;51.120;17.024;2023-01-09T03:19:01;41.6;;;25.7;;
68319;SDS011;55168;51.120;17.024;2023-01-09T03:20:02;41.6;;;25.7;;
68319;SDS011;55168;51.120;17.024;2023-01-09T03:21:00;41.6;;;25.7;;
68319;SDS011;55168;51.120;17.024;2023-01-09T03:22:00;41.6;;;25.7;;
68319;SDS011;55168;51.120;17.024;2023-01-09T03:23:02;41.6;;;25.7;;
68319;SDS011;55168;51.120;17.024;2023-01-09T03:24:01;41.6;;;26.7;;
68319;SDS011;55168;51.120;17.024;2023-01-09T03:25:00;41.6;;;26.7;;
68319;SDS011;55168;51.120;17.024;2023-01-09T03:26:00;41.6;;;26.7;;
68319;SDS011;55168;51.120;17.024;2023-01-09T03:27:00;41.6;;;26.7;;
68319;SDS011;55168;51.120;17.024;2023-01-09T03:28:04;41.6;;;26.7;;
68319;SDS011;55168;51.120;17.024;2023-01-09T03:29:00;40.1;;;25.6;;
68319;SDS011;55168;51.120;17.024;2023-01-09T03:30:00;40.1;;;25.6;;
68319;SDS011;55168;51.120;17.024;2023-01-09T03:31:00;40.1;;;25.6;;
68319;SDS011;55168;51.120;17.024;2023-01-09T03:32:00;40.1;;;25.6;;
68319;SDS011;55168;51.120;17.024;2023-01-09T03:33:00;40.1;;;25.6;;
68319;SDS011;55168;51.120;17.024;2023-01-09T03:34:00;43.9;;;27.4;;
68319;SDS011;55168;51.120;17.024;2023-01-09T03:35:00;43.9;;;27.4;;
68319;SDS011;55168;51.120;17.024;2023-01-09T03:36:00;43.9;;;27.4;;
68319;SDS011;55168;51.120;17.024;2023-01-09T03:37:00;43.9;;;27.4;;
68319;SDS011;55168;51.120;17.024;2023-01-09T03:38:00;43.9;;;27.4;;
68319;SDS011;55168;51.120;17.024;2023-01-09T03:39:00;44.0;;;27.9;;
68319;SDS011;55168;51.120;17.024;2023-01-09T03:40:00;44.0;;;27.9;;
68319;SDS011;55168;51.120;17.024;2023-01-09T03:41:01;44.0;;;27.9;;
68319;SDS011;55168;51.120;17.024;2023-01-09T03:42:00;44.0;;;27.9;;
68319;SDS011;55168;51.120;17.024;2023-01-09T03:43:00;44.0;;;27.9;;
68319;SDS011;55168;51.120;17.024;2023-01-09T03:44:00;41.1;;;27.1;;
68319;SDS011;55168;51.120;17.024;2023-01-09T03:45:00;41.1;;;27.1;;
68319;SDS011;55168;51.120;17.024;2023-01-09T03:46:00;41.1;;;27.1;;
68319;SDS011;55168;51.120;17.024;2023-01-09T03:47:00;41.1;;;27.1;;
68319;SDS011;55168;51.120;17.024;2023-01-09T03:48:00;41.1;;;27.1;;
68319;SDS011;55168;51.120;17.024;2023-01-09T03:49:00;39.8;;;26.0;;
68319;SDS011;55168;51.120;17.024;2023-01-09T03:50:00;39.8;;;26.0;;
68319;SDS011;55168;51.120;17.024;2023-01-09T03:51:00;39.8;;;26.0;;
68319;SDS011;55168;51.120;17.024;2023-01-09T03:52:00;39.8;;;26.0;;
68319;SDS011;55168;51.120;17.024;2023-01-09T03:53:00;39.8;;;26.0;;
68319;SDS011;55168;51.120;17.024;2023-01-09T03:54:00;40.8;;;26.5;;
68319;SDS011;55168;51.120;17.024;2023-01-09T03:55:00;40.8;;;26.5;;
68319;SDS011;55168;51.120;17.024;2023-01-09T03:56:00;40.8;;;26.5;;
68319;SDS011;55168;51.120;17.024;2023-01-09T03:57:00;40.8;;;26.5;;
68319;SDS011;55168;51.120;17.024;2023-01-09T03:58:00;40.8;;;26.5;;
68319;SDS011;55168;51.120;17.024;2023-01-09T03:59:00;39.9;;;25.3;;
68319;SDS011;55168;51.120;17.024;2023-01-09T04:00:00;39.9;;;25.3;;
68319;SDS011;55168;51.120;17.024;2023-01-09T04:01:03;39.9;;;25.3;;
68319;SDS011;55168;51.120;17.024;2023-01-09T04:02:00;39.9;;;25.3;;
68319;SDS011;55168;51.120;17.024;2023-01-09T04:03:00;40.1;;;26.4;;
68319;SDS011;55168;51.120;17.024;2023-01-09T04:04:00;40.1;;;26.4;;
68319;SDS011;55168;51.120;17.024;2023-01-09T04:05:00;40.1;;;26.4;;
68319;SDS011;55168;51.120;17.024;2023-01-09T04:06:00;40.1;;;26.4;;
68319;SDS011;55168;51.120;17.024;2023-01-09T04:07:00;40.1;;;26.4;;
68319;SDS011;55168;51.120;17.024;2023-01-09T04:08:00;37.7;;;25.7;;
68319;SDS011;55168;51.120;17.024;2023-01-09T04:09:00;37.7;;;25.7;;
68319;SDS011;55168;51.120;17.024;2023-01-09T04:10:00;37.7;;;25.7;;
68319;SDS011;55168;51.120;17.024;2023-01-09T04:11:00;37.7;;;25.7;;
68319;SDS011;55168;51.120;17.024;2023-01-09T04:12:00;37.7;;;25.7;;
68319;SDS011;55168;51.120;17.024;2023-01-09T04:13:00;41.7;;;26.3;;
68319;SDS011;55168;51.120;17.024;2023-01-09T04:14:00;41.7;;;26.3;;
68319;SDS011;55168;51.120;17.024;2023-01-09T04:15:00;41.7;;;26.3;;
68319;SDS011;55168;51.120;17.024;2023-01-09T04:16:00;41.7;;;26.3;;
68319;SDS011;55168;51.120;17.024;2023-01-09T04:17:00;41.7;;;26.3;;
68319;SDS011;55168;51.120;17.024;2023-01-09T04:18:00;38.4;;;23.6;;
68319;SDS011;55168;51.120;17.024;2023-01-09T04:19:00;38.4;;;23.6;;
68319;SDS011;55168;51.120;17.024;2023-01-09T04:20:00;38.4;;;23.6;;
68319;SDS011;55168;51.120;17.024;2023-01-09T04:21:00;38.4;;;23.6;;
68319;SDS011;55168;51.120;17.024;2023-01-09T04:22:00;38.4;;;23.6;;
68319;SDS011;55168;51.120;17.024;2023-01-09T04:23:00;40.6;;;25.0;;
68319;SDS011;55168;51.120;17.024;2023-01-09T04:24:00;40.6;;;25.0;;
68319;SDS011;55168;51.120;17.024;2023-01-09T04:25:00;40.6;;;25.0;;
68319;SDS011;55168;51.120;17.024;2023-01-09T04:26:00;40.6;;;25.0;;
68319;SDS011;55168;51.120;17.024;2023-01-09T04:27:00;40.6;;;25.0;;
68319;SDS011;55168;51.120;17.024;2023-01-09T04:28:00;40.9;;;24.8;;
68319;SDS011;55168;51.120;17.024;2023-01-09T04:29:00;40.9;;;24.8;;
68319;SDS011;55168;51.120;17.024;2023-01-09T04:30:00;40.9;;;24.8;;
68319;SDS011;55168;51.120;17.024;2023-01-09T04:31:00;40.9;;;24.8;;
68319;SDS011;55168;51.120;17.024;2023-01-09T04:32:00;40.9;;;24.8;;
68319;SDS011;55168;51.120;17.024;2023-01-09T04:33:00;38.3;;;25.8;;
68319;SDS011;55168;51.120;17.024;2023-01-09T04:34:00;38.3;;;25.8;;
68319;SDS011;55168;51.120;17.024;2023-01-09T04:35:00;38.3;;;25.8;;
68319;SDS011;55168;51.120;17.024;2023-01-09T04:36:00;38.3;;;25.8;;
68319;SDS011;55168;51.120;17.024;2023-01-09T04:37:00;38.3;;;25.8;;
68319;SDS011;55168;51.120;17.024;2023-01-09T04:38:00;40.7;;;25.5;;
68319;SDS011;55168;51.120;17.024;2023-01-09T04:39:00;40.7;;;25.5;;
68319;SDS011;55168;51.120;17.024;2023-01-09T04:40:00;40.7;;;25.5;;
68319;SDS011;55168;51.120;17.024;2023-01-09T04:41:00;40.7;;;25.5;;
68319;SDS011;55168;51.120;17.024;2023-01-09T04:42:00;40.7;;;25.5;;
68319;SDS011;55168;51.120;17.024;2023-01-09T04:43:00;37.9;;;25.7;;
68319;SDS011;55168;51.120;17.024;2023-01-09T04:44:00;37.9;;;25.7;;
68319;SDS011;55168;51.120;17.024;2023-01-09T04:45:00;37.9;;;25.7;;
68319;SDS011;55168;51.120;17.024;2023-01-09T04:46:00;37.9;;;25.7;;
68319;SDS011;55168;51.120;17.024;2023-01-09T04:47:00;37.9;;;25.7;;
68319;SDS011;55168;51.120;17.024;2023-01-09T04:48:00;40.0;;;25.4;;
68319;SDS011;55168;51.120;17.024;2023-01-09T04:49:00;40.0;;;25.4;;
68319;SDS011;55168;51.120;17.024;2023-01-09T04:50:00;40.0;;;25.4;;
68319;SDS011;55168;51.120;17.024;2023-01-09T04:51:00;40.0;;;25.4;;
68319;SDS011;55168;51.120;17.024;2023-01-09T04:52:00;40.0;;;25.4;;
68319;SDS011;55168;51.120;17.024;2023-01-09T04:53:00;37.1;;;25.5;;
68319;SDS011;55168;51.120;17.024;2023-01-09T04:54:00;37.1;;;25.5;;
68319;SDS011;55168;51.120;17.024;2023-01-09T04:55:00;37.1;;;25.5;;
68319;SDS011;55168;51.120;17.024;2023-01-09T04:56:00;37.1;;;25.5;;
68319;SDS011;55168;51.120;17.024;2023-01-09T04:57:00;37.1;;;25.5;;
68319;SDS011;55168;51.120;17.024;2023-01-09T04:58:00;37.3;;;24.8;;
68319;SDS011;55168;51.120;17.024;2023-01-09T04:59:00;37.3;;;24.8;;
68319;SDS011;55168;51.120;17.024;2023-01-09T05:00:00;37.3;;;24.8;;
68319;SDS011;55168;51.120;17.024;2023-01-09T05:01:00;37.3;;;24.8;;
68319;SDS011;55168;51.120;17.024;2023-01-09T05:02:00;37.3;;;24.8;;
68319;SDS011;55168;51.120;17.024;2023-01-09T05:03:00;39.2;;;25.5;;
68319;SDS011;55168;51.120;17.024;2023-01-09T05:04:00;39.2;;;25.5;;
68319;SDS011;55168;51.120;17.024;2023-01-09T05:05:00;39.2;;;25.5;;
68319;SDS011;55168;51.120;17.024;2023-01-09T05:06:00;39.2;;;25.5;;
68319;SDS011;55168;51.120;17.024;2023-01-09T05:07:00;39.2;;;25.5;;
68319;SDS011;55168;51.120;17.024;2023-01-09T05:08:00;37.1;;;25.3;;
68319;SDS011;55168;51.120;17.024;2023-01-09T05:09:00;37.1;;;25.3;;
68319;SDS011;55168;51.120;17.024;2023-01-09T05:10:00;37.1;;;25.3;;
68319;SDS011;55168;51.120;17.024;2023-01-09T05:11:00;37.1;;;25.3;;
68319;SDS011;55168;51.120;17.024;2023-01-09T05:12:00;37.1;;;25.3;;
68319;SDS011;55168;51.120;17.024;2023-01-09T05:13:00;34.3;;;23.8;;
68319;SDS011;55168;51.120;17.024;2023-01-09T05:14:00;34.3;;;23.8;;
68319;SDS011;55168;51.120;17.024;2023-01-09T05:15:00;34.3;;;23.8;;
68319;SDS011;55168;51.120;17.024;2023-01-09T05:16:00;34.3;;;23.8;;
68319;SDS011;55168;51.120;17.024;2023-01-09T05:17:00;34.3;;;23.8;;
68319;SDS011;55168;51.120;17.024;2023-01-09T05:18:00;34.3;;;23.6;;
68319;SDS011;55168;51.120;17.024;2023-01-09T05:19:00;34.3;;;23.6;;
68319;SDS011;55168;51.120;17.024;2023-01-09T05:20:00;34.3;;;23.6;;
68319;SDS011;55168;51.120;17.024;2023-01-09T05:21:00;34.3;;;23.6;;
68319;SDS011;55168;51.120;17.024;2023-01-09T05:22:00;34.3;;;23.6;;
68319;SDS011;55168;51.120;17.024;2023-01-09T05:23:00;36.9;;;23.5;;
68319;SDS011;55168;51.120;17.024;2023-01-09T05:24:00;36.9;;;23.5;;
68319;SDS011;55168;51.120;17.024;2023-01-09T05:25:00;36.9;;;23.5;;
68319;SDS011;55168;51.120;17.024;2023-01-09T05:26:00;36.9;;;23.5;;
68319;SDS011;55168;51.120;17.024;2023-01-09T05:27:00;36.9;;;23.5;;
68319;SDS011;55168;51.120;17.024;2023-01-09T05:28:00;36.1;;;23.1;;
68319;SDS011;55168;51.120;17.024;2023-01-09T05:29:00;36.1;;;23.1;;
68319;SDS011;55168;51.120;17.024;2023-01-09T05:30:00;36.1;;;23.1;;
68319;SDS011;55168;51.120;17.024;2023-01-09T05:31:00;36.1;;;23.1;;
68319;SDS011;55168;51.120;17.024;2023-01-09T05:32:00;36.1;;;23.1;;
68319;SDS011;55168;51.120;17.024;2023-01-09T05:33:00;40.0;;;24.0;;
68319;SDS011;55168;51.120;17.024;2023-01-09T05:34:00;40.0;;;24.0;;
68319;SDS011;55168;51.120;17.024;2023-01-09T05:35:00;40.0;;;24.0;;
68319;SDS011;55168;51.120;17.024;2023-01-09T05:36:00;40.0;;;24.0;;
68319;SDS011;55168;51.120;17.024;2023-01-09T05:37:00;40.0;;;24.0;;
68319;SDS011;55168;51.120;17.024;2023-01-09T05:38:00;37.1;;;23.3;;
68319;SDS011;55168;51.120;17.024;2023-01-09T05:39:00;37.1;;;23.3;;
68319;SDS011;55168;51.120;17.024;2023-01-09T05:40:00;37.1;;;23.3;;
68319;SDS011;55168;51.120;17.024;2023-01-09T05:41:00;37.1;;;23.3;;
68319;SDS011;55168;51.120;17.024;2023-01-09T05:42:00;37.1;;;23.3;;
68319;SDS011;55168;51.120;17.024;2023-01-09T05:43:00;36.7;;;23.8;;
68319;SDS011;55168;51.120;17.024;2023-01-09T05:44:00;36.7;;;23.8;;
68319;SDS011;55168;51.120;17.024;2023-01-09T05:45:00;36.7;;;23.8;;
68319;SDS011;55168;51.120;17.024;2023-01-09T05:46:00;36.7;;;23.8;;
68319;SDS011;55168;51.120;17.024;2023-01-09T05:47:00;36.7;;;23.8;;
68319;SDS011;55168;51.120;17.024;2023-01-09T05:48:00;34.6;;;23.9;;
68319;SDS011;55168;51.120;17.024;2023-01-09T05:49:00;34.6;;;23.9;;
68319;SDS011;55168;51.120;17.024;2023-01-09T05:50:00;34.6;;;23.9;;
68319;SDS011;55168;51.120;17.024;2023-01-09T05:51:00;34.6;;;23.9;;
68319;SDS011;55168;51.120;17.024;2023-01-09T05:52:00;34.6;;;23.9;;
68319;SDS011;55168;51.120;17.024;2023-01-09T05:53:00;34.4;;;21.3;;
68319;SDS011;55168;51.120;17.024;2023-01-09T05:54:00;34.4;;;21.3;;
68319;SDS011;55168;51.120;17.024;2023-01-09T05:55:00;34.4;;;21.3;;
68319;SDS011;55168;51.120;17.024;2023-01-09T05:56:00;34.4;;;21.3;;
68319;SDS011;55168;51.120;17.024;2023-01-09T05:57:00;34.4;;;21.3;;
68319;SDS011;55168;51.120;17.024;2023-01-09T05:58:00;32.5;;;21.2;;
68319;SDS011;55168;51.120;17.024;2023-01-09T05:59:00;32.5;;;21.2;;
68319;SDS011;55168;51.120;17.024;2023-01-09T06:00:00;32.5;;;21.2;;
68319;SDS011;55168;51.120;17.024;2023-01-09T06:01:00;32.5;;;21.2;;
68319;SDS011;55168;51.120;17.024;2023-01-09T06:02:00;32.5;;;21.2;;
68319;SDS011;55168;51.120;17.024;2023-01-09T06:03:00;32.7;;;21.5;;
68319;SDS011;55168;51.120;17.024;2023-01-09T06:04:00;32.7;;;21.5;;
68319;SDS011;55168;51.120;17.024;2023-01-09T06:05:00;32.7;;;21.5;;
68319;SDS011;55168;51.120;17.024;2023-01-09T06:06:00;32.7;;;21.5;;
68319;SDS011;55168;51.120;17.024;2023-01-09T06:07:00;32.7;;;21.5;;
68319;SDS011;55168;51.120;17.024;2023-01-09T06:08:00;33.4;;;21.9;;
68319;SDS011;55168;51.120;17.024;2023-01-09T06:09:00;33.4;;;21.9;;
68319;SDS011;55168;51.120;17.024;2023-01-09T06:10:00;33.4;;;21.9;;
68319;SDS011;55168;51.120;17.024;2023-01-09T06:11:00;33.4;;;21.9;;
68319;SDS011;55168;51.120;17.024;2023-01-09T06:12:00;33.4;;;21.9;;
68319;SDS011;55168;51.120;17.024;2023-01-09T06:13:00;35.9;;;22.7;;
68319;SDS011;55168;51.120;17.024;2023-01-09T06:14:00;35.9;;;22.7;;
68319;SDS011;55168;51.120;17.024;2023-01-09T06:15:00;35.9;;;22.7;;